Tiempo atmosférico en la estación meteorológica de Fresno De Sayago, Zamora (804 m.)



Fecha
DESCASC
Temp. máxima en grados centígrados (hora)
DESCASC
Temp. mínima en grados centígrados (hora)
DESCASC
Temp. media en grados centígrados
DESCASC
Racha de viento máxima en m/sg (hora)
DESCASC
Velocidad máxima media en intervalos de 10 minutos(hora)
DESCASC
Precipitaciones diarias en mm
DESCASC
Precipitaciones de 00:00 a 06:00 en mm
DESCASC
Precipitaciones de 06:00 a 12:00 en mm
DESCASC
Precipitaciones de 12:00 a 18:00 en mm
DESCASC
Precipitaciones de 18:00 a 24:00 en mm
DESCASC
11-12-2019 8.5 (14:50) 1.4 (03:30) 4.9 13.89 (14:40) 8.33 (13:50) 1 0.2 0.8 0 0
08-12-2019 9.9 (18:40) 1.1 (00:00) 5.5 7.22 (20:10) 5 (15:40) 2.2 0 0 2.2 0
07-12-2019 13.7 (14:30) -1.4 (-00:0) 6.1 4.17 (17:00) 3.06 (16:20) 0 0 0 0 0
06-12-2019 12.3 (17:00) -0.8 (-00:0) 5.8 6.94 (06:40) 5 (01:00) 0 0 0 0 0
05-12-2019 9.6 (16:00) -1.2 (-00:0) 4.2 12.22 (12:40) 7.78 (16:10) 0 0 0 0 0
04-12-2019 6.7 (15:40) -3.1 (03:20) 1.8 11.67 (15:40) 8.33 (15:40) 0 0 0 0 0
03-12-2019 5.6 (15:10) -2.5 (-00:0) 1.5 11.39 (13:40) 8.33 (11:50) 0 0 0 0 0
02-12-2019 8.7 (14:50) 0.9 (00:00) 4.8 18.89 (14:40) 14.17 (15:00) 0 0 0 0 0
01-12-2019 9.4 (12:30) 4.7 (00:00) 7 11.11 (16:50) 8.06 (23:00) 5.8 1 0.2 4.6 0
30-11-2019 12.3 (12:40) 3.1 (00:00) 7.7 17.22 (15:20) 11.11 (15:30) 3.8 0 2.6 1.2 0
29-11-2019 13.5 (16:30) 10.3 (00:00) 11.9 12.5 (00:40) 8.06 (01:50) 7.8 0 0.4 0 7.4
28-11-2019 12.1 (15:10) 8 (03:50) 10.1 17.5 (19:40) 11.67 (19:20) 4.2 0.2 0.8 0 3.2
27-11-2019 10.7 (14:40) 6.4 (00:00) 8.5 21.11 (15:40) 11.67 (15:40) 0 0 0 0 0
26-11-2019 13.9 (13:40) 8.3 (00:00) 11.1 20.28 (13:40) 13.61 (20:10) 8.6 0 0.4 2.2 6
25-11-2019 12.7 (12:10) 8.9 (23:59) 10.8 16.39 (01:30) 10.28 (01:00) 0.8 0.8 0 0 0
24-11-2019 9.2 (22:50) 1.6 (00:00) 5.4 17.5 (21:40) 11.39 (22:10) 1.4 0 0 0 1.4
23-11-2019 9.5 (15:20) 3.9 (00:00) 6.7 21.67 (12:40) 12.22 (02:20) 0 0 0 0 0
22-11-2019 11.8 (14:30) 5.5 (00:00) 8.7 23.33 (14:40) 14.17 (11:00) 9.2 1.4 2.8 1.6 3.4
21-11-2019 10.3 (16:20) 4 (00:00) 7.2 9.17 (13:40) 6.39 (12:50) 6.2 2.2 4 0 0
20-11-2019 7.3 (16:10) 3.8 (23:20) 5.6 9.72 (16:20) 6.67 (09:20) 8 3 3.6 1 0.4
19-11-2019 9.3 (14:10) -3.1 (-00:0) 3.1 7.22 (15:10) 4.72 (15:10) 0 0 0 0 0
18-11-2019 12.7 (14:00) -1.3 (-00:0) 5.7 7.5 (00:30) 5.28 (00:10) 0 0 0 0 0
17-11-2019 9 (14:50) 2.2 (00:00) 5.6 13.61 (12:40) 7.78 (13:30) 0.8 0 0.4 0.4 0
16-11-2019 7.9 (15:30) -2.8 (-00:0) 2.6 12.78 (15:40) 9.44 (16:50) 0 0 0 0 0
15-11-2019 7.1 (14:40) 0.1 (00:00) 3.6 13.61 (01:40) 8.89 (02:20) 0 0 0 0 0

Gráficas

Temp. máximas Temp. mínimas Temp. medias Precipitaciones Rachas de viento máximas Velocidades máximas media en intervalos de 10 minutos

Datos horarios

Fecha y hora oficial Temperatura (ºC) Velocidad del viento (km/h) Dirección del viento Racha (km/h) Dirección de racha Precipitación (mm) Presión (hPa) Tendencia (hPa) Humedad (%)
2019-12-14 23:00:00 8 27 Sudoeste 40 Sudoeste 0 -- -- 94
2019-12-14 22:00:00 8 23 Sudoeste 40 Sudoeste 0 -- -- 94
2019-12-14 21:00:00 8 24 Sudoeste 42 Sudoeste 0 -- -- 95
2019-12-14 20:00:00 8.1 23 Sudoeste 40 Sudoeste 0 -- -- 92
2019-12-14 19:00:00 8.1 22 Sudoeste 32 Sudoeste 0 -- -- 94
2019-12-14 18:00:00 8.3 23 Sudoeste 35 Sudoeste 0 -- -- 96
2019-12-14 17:00:00 8.4 27 Sudoeste 42 Sudoeste 0.2 -- -- 99
2019-12-14 16:00:00 8.7 26 Sudoeste 39 Sudoeste 0 -- -- 96
2019-12-14 15:00:00 9.7 25 Sudoeste 45 Oeste 0 -- -- 86
2019-12-14 14:00:00 9.6 25 Oeste 41 Oeste 0 -- -- 90
2019-12-14 13:00:00 8.6 28 Sudoeste 36 Sudoeste 0 -- -- 98
2019-12-14 12:00:00 8.5 24 Sudoeste 36 Sudoeste 0 -- -- 96
2019-12-14 11:00:00 8.4 25 Sudoeste 39 Sudoeste 0 -- -- 97
2019-12-14 10:00:00 7.8 19 Sudoeste 31 Sudoeste 0 -- -- 99
2019-12-14 09:00:00 7 19 Sudoeste 27 Sudoeste 0 -- -- 100
2019-12-14 08:00:00 7.3 16 Sudoeste 32 Sudoeste 0 -- -- 96
2019-12-14 07:00:00 7.4 23 Sudoeste 36 Sudoeste 0 -- -- 96
2019-12-14 06:00:00 7.4 25 Sudoeste 36 Sudoeste 0 -- -- 95
2019-12-14 05:00:00 7.2 23 Sudoeste 36 Sudoeste 0 -- -- 96
2019-12-14 04:00:00 7.3 23 Sudoeste 33 Sudoeste 0 -- -- 95
2019-12-14 03:00:00 7.7 27 Oeste 41 Oeste 0 -- -- 91
2019-12-14 02:00:00 7.6 26 Sudoeste 39 Sudoeste 0 -- -- 92
2019-12-14 01:00:00 7.4 26 Sudoeste 44 Oeste 0 -- -- 94
2019-12-14 00:00:00 7.9 31 Oeste 46 Oeste 0 -- -- 92
2019-12-13 23:00:00 8.4 33 Oeste 46 Oeste 0 -- -- 88
2019-12-13 22:00:00 9 38 Oeste 67 Oeste 0 -- -- 89
2019-12-13 21:00:00 9.1 28 Oeste 47 Oeste 0 -- -- 92
2019-12-13 20:00:00 9.4 28 Oeste 48 Sudoeste 0 -- -- 93
2019-12-13 19:00:00 9.8 27 Oeste 48 Oeste 0 -- -- 92
2019-12-13 18:00:00 10 30 Oeste 45 Sudoeste 0 -- -- 91
2019-12-13 17:00:00 10.8 30 Oeste 44 Oeste 0 -- -- 87
2019-12-13 16:00:00 11.2 26 Oeste 47 Sudoeste 0 -- -- 87
2019-12-13 15:00:00 10.9 31 Oeste 63 Oeste 0 -- -- 91
2019-12-13 14:00:00 10.8 39 Oeste 55 Oeste 0 -- -- 94
2019-12-13 13:00:00 10.1 28 Sudoeste 49 Sudoeste 0 -- -- 96
2019-12-13 12:00:00 9.6 23 Sudoeste 41 Sudoeste 0 -- -- 96
2019-12-13 11:00:00 9.6 26 Oeste 49 Oeste 0 -- -- 94
2019-12-13 10:00:00 9.8 32 Oeste 50 Oeste 0 -- -- 88
2019-12-13 09:00:00 9.6 28 Oeste 39 Oeste 0 -- -- 86
2019-12-13 08:00:00 9.6 27 Sudoeste 40 Sudoeste 0 -- -- 86
2019-12-13 07:00:00 9.7 31 Oeste 45 Sudoeste 0 -- -- 85
2019-12-13 06:00:00 9.8 26 Sudoeste 36 Sudoeste 0 -- -- 87
2019-12-13 05:00:00 10.3 25 Sudoeste 46 Sudoeste 0 -- -- 88
2019-12-13 04:00:00 10.3 22 Sudoeste 37 Sudoeste 0 -- -- 90
2019-12-13 03:00:00 10.4 23 Sudoeste 44 Sudoeste 0 -- -- 91
2019-12-13 02:00:00 10.4 31 Sudoeste 52 Oeste 0 -- -- 91
2019-12-13 01:00:00 10.7 33 Oeste 55 Sudoeste 0 -- -- 90
2019-12-13 00:00:00 10.5 35 Oeste 56 Oeste 0 -- -- 91
2019-12-12 23:00:00 10.4 43 Oeste 66 Oeste 0 -- -- 92
2019-12-12 22:00:00 10.4 38 Oeste 68 Oeste 0 -- -- 92
2019-12-12 21:00:00 10.2 35 Oeste 64 Oeste 0 -- -- 92
2019-12-12 20:00:00 10 36 Oeste 60 Oeste 0 -- -- 93
2019-12-12 19:00:00 9.3 42 Oeste 71 Oeste 0 -- -- 95
2019-12-12 18:00:00 8.4 41 Oeste 77 Sudoeste 0 -- -- 97
2019-12-12 17:00:00 7.9 34 Sudoeste 60 Sudoeste 0 -- -- 96
2019-12-12 16:00:00 7.5 37 Sudoeste 59 Oeste 0 -- -- 95
2019-12-12 15:00:00 7.2 37 Oeste 65 Sudoeste 0 -- -- 93
2019-12-12 14:00:00 6.8 42 Sudoeste 55 Sudoeste 0 -- -- 96
2019-12-12 13:00:00 6.5 33 Sudoeste 54 Sudoeste 0 -- -- 97
2019-12-12 12:00:00 6.7 39 Sudoeste 60 Sudoeste 0.2 -- -- 96
2019-12-12 11:00:00 5.8 35 Sudoeste 46 Sudoeste 0.2 -- -- 99
2019-12-12 10:00:00 5.2 30 Sudoeste 55 Sudoeste 0.2 -- -- 99
2019-12-12 09:00:00 5.1 30 Sudoeste 43 Sudoeste 0 -- -- 100
2019-12-12 08:00:00 4.8 24 Sudoeste 44 Sudoeste 0.2 -- -- 100
2019-12-12 07:00:00 4.8 22 Sudoeste 38 Sudoeste 0 -- -- 100
2019-12-12 06:00:00 4.5 25 Sudoeste 35 Sudoeste 0.4 -- -- 100
2019-12-12 05:00:00 4.2 24 Sudoeste 33 Sudoeste 0 -- -- 100
2019-12-12 04:00:00 4 18 Sudoeste 34 Sudoeste 0 -- -- 100
2019-12-12 03:00:00 3.9 17 Sudoeste 30 Sudoeste 0 -- -- 99
2019-12-12 02:00:00 3.6 15 Sudoeste 25 Sudoeste 0 -- -- 100
2019-12-12 01:00:00 3.3 17 Sudoeste 29 Oeste 0 -- -- 99
2019-12-12 00:00:00 2.6 15 Sudoeste 20 Sudoeste 0 -- -- 97
2019-12-11 23:00:00 3.6 12 Sudoeste 24 Sudoeste 0 -- -- 93
2019-12-11 22:00:00 3.6 17 Oeste 26 Sudoeste 0 -- -- 91
2019-12-11 21:00:00 4.1 19 Oeste 31 Oeste 0 -- -- 87
2019-12-11 20:00:00 4.8 18 Oeste 30 Sudoeste 0 -- -- 80
2019-12-11 19:00:00 4 13 Sudoeste 18 Oeste 0 -- -- 84
2019-12-11 18:00:00 4.9 13 Oeste 39 Oeste 0 -- -- 77
2019-12-11 17:00:00 6.7 24 Oeste 48 Oeste 0 -- -- 70
2019-12-11 16:00:00 6.7 24 Oeste 42 Oeste 0 -- -- 70
2019-12-11 15:00:00 8.3 23 Oeste 50 Noroeste 0 -- -- 63
2019-12-11 14:00:00 8.1 26 Noroeste 40 Noroeste 0 -- -- 64
2019-12-11 13:00:00 6.9 22 Oeste 34 Noroeste 0 -- -- 77
2019-12-11 12:00:00 6.8 23 Oeste 39 Oeste 0 -- -- 83
2019-12-11 11:00:00 5.9 27 Oeste 36 Oeste 0 -- -- 93
2019-12-11 10:00:00 4 22 Oeste 32 Oeste 0 -- -- 100
2019-12-11 09:00:00 4.1 22 Oeste 30 Oeste 0 -- -- 100
2019-12-11 08:00:00 4.2 18 Oeste 27 Oeste 0.8 -- -- 100
2019-12-11 07:00:00 3.6 7 Sudoeste 21 Sudoeste 0 -- -- 100
2019-12-11 06:00:00 3.2 16 Sudoeste 34 Oeste 0.2 -- -- 98
2019-12-11 05:00:00 2.6 6 Sudoeste 18 Sudoeste 0 -- -- 90
2019-12-11 04:00:00 2.6 16 Sudoeste 18 Sudoeste 0 -- -- 90
2019-12-11 03:00:00 1.6 12 Sudoeste 14 Sudoeste 0 -- -- 93
2019-12-11 02:00:00 2 12 Sudoeste 19 Sudoeste 0 -- -- 94
2019-12-11 01:00:00 2.9 10 Sudoeste 17 Sudoeste 0 -- -- 96
2019-12-11 00:00:00 2.1 10 Sudoeste 14 Sudoeste 0 -- -- 100
2019-12-10 23:00:00 1.8 12 Sudoeste 14 Sudoeste 0 -- -- 100
2019-12-10 22:00:00 2.3 9 Sudoeste 10 Sudoeste 0 -- -- 100
2019-12-10 21:00:00 3 4 Sudoeste 9 Sur 0 -- -- 99
2019-12-10 20:00:00 4.6 5 Sudoeste 8 Sudoeste 0 -- -- 97
2019-12-10 19:00:00 4.8 6 Sudoeste 13 Sudoeste 0 -- -- 94
2019-12-10 18:00:00 5.8 6 Sudoeste 9 Sudoeste 0 -- -- 91
2019-12-10 17:00:00 7.4 5 Sudoeste 10 Sudoeste 0 -- -- 90
2019-12-10 16:00:00 8.2 5 Sudoeste 6 Sudoeste 0 -- -- 90
2019-12-10 15:00:00 8.3 3 Sudoeste 8 Sudoeste 0 -- -- 84
2019-12-10 14:00:00 8.7 3 Sudoeste 6 Oeste 0 -- -- 89
2019-12-10 13:00:00 6.6 5 Sudeste 9 Sudeste 0 -- -- 100
2019-12-10 12:00:00 2.6 5 Este 11 Nordeste 0 -- -- 100
2019-12-10 11:00:00 0.4 8 Este 12 Nordeste 0 -- -- 100
2019-12-10 10:00:00 -1.1 10 Nordeste 19 Nordeste 0 -- -- 100
2019-12-10 09:00:00 -1.6 8 Nordeste 12 Nordeste 0 -- -- 100
2019-12-10 08:00:00 -1.8 12 Nordeste 15 Nordeste 0 -- -- 100
2019-12-10 07:00:00 -1.3 12 Nordeste 18 Nordeste 0 -- -- 100
2019-12-10 06:00:00 -0.9 10 Nordeste 14 Este 0 -- -- 100
2019-12-10 05:00:00 -1.3 11 Nordeste 14 Nordeste 0 -- -- 100
2019-12-10 04:00:00 -2 8 Nordeste 10 Nordeste 0 -- -- 100
2019-12-10 03:00:00 0.9 5 Norte 12 Nordeste 0 -- -- 100
2019-12-10 02:00:00 -0.8 5 Nordeste 10 Este 0 -- -- 100
2019-12-10 01:00:00 1.5 4 Este 17 Este 0 -- -- 100
2019-12-10 00:00:00 0.4 6 Sudeste 8 Sudeste 0 -- -- 100
2019-12-09 23:00:00 -0.6 4 Este 5 Este 0 -- -- 100
2019-12-09 22:00:00 1.4 5 Sudoeste 10 Sudoeste 0 -- -- 99
2019-12-09 21:00:00 1.8 8 Nordeste 9 Nordeste 0 -- -- 97
2019-12-09 20:00:00 3.4 4 Nordeste 7 Nordeste 0 -- -- 95
2019-12-09 19:00:00 4.5 5 Nordeste 9 Norte 0 -- -- 89
2019-12-09 18:00:00 5.9 4 Nordeste 9 Oeste 0 -- -- 89
2019-12-09 17:00:00 8.1 7 Oeste 21 Oeste 0 -- -- 80
2019-12-09 16:00:00 8.4 14 Oeste 23 Oeste 0 -- -- 81
2019-12-09 15:00:00 9 14 Oeste 24 Oeste 0 -- -- 76
2019-12-09 14:00:00 9.9 17 Oeste 24 Sudoeste 0 -- -- 73
2019-12-09 13:00:00 8.8 19 Sudoeste 25 Sudoeste 0 -- -- 82
2019-12-09 12:00:00 6.9 14 Sudoeste 22 Sudoeste 0 -- -- 92
2019-12-09 11:00:00 4.5 14 Sudoeste 26 Sur 0 -- -- 100
2019-12-09 10:00:00 4.1 13 Sudoeste 19 Sudoeste 0 -- -- 100
2019-12-09 09:00:00 3.6 12 Sudoeste 18 Sudoeste 0 -- -- 100
2019-12-09 08:00:00 3.9 9 Oeste 16 Sudoeste 0 -- -- 100
2019-12-09 07:00:00 4.4 10 Oeste 18 Sudoeste 0 -- -- 100
2019-12-09 06:00:00 4.7 13 Oeste 22 Sudoeste 0 -- -- 100
2019-12-09 05:00:00 5.4 14 Sudoeste 22 Sudoeste 0 -- -- 100
2019-12-09 04:00:00 5.7 15 Sudoeste 21 Oeste 0 -- -- 100
2019-12-09 03:00:00 6.1 13 Sudoeste 24 Sudoeste 0 -- -- 100
2019-12-09 02:00:00 6.3 9 Oeste 17 Oeste 0 -- -- 100
2019-12-09 01:00:00 7.1 7 Noroeste 23 Oeste 0 -- -- 100
2019-12-09 00:00:00 7.6 14 Oeste 22 Oeste 0 -- -- 100
2019-12-08 23:00:00 7.9 10 Oeste 21 Oeste 0 -- -- 100
2019-12-08 22:00:00 8.4 8 Oeste 21 Oeste 0 -- -- 100
2019-12-08 21:00:00 9.1 15 Noroeste 26 Oeste 0 -- -- 100
2019-12-08 20:00:00 9.8 16 Oeste 24 Oeste 0 -- -- 100
2019-12-08 19:00:00 9.9 17 Oeste 24 Oeste 0 -- -- 100
2019-12-08 18:00:00 9.7 13 Oeste 21 Oeste 0 -- -- 100
2019-12-08 17:00:00 9.7 14 Oeste 22 Oeste 0 -- -- 100
2019-12-08 16:00:00 9.5 14 Sudoeste 26 Sudoeste 0 -- -- 100
2019-12-08 15:00:00 9.6 16 Oeste 23 Sudoeste 0 -- -- 100
2019-12-08 14:00:00 9.1 12 Sudoeste 19 Oeste 1.4 -- -- 100
2019-12-08 13:00:00 8.3 12 Sudoeste 23 Sudoeste 0.8 -- -- 100
2019-12-08 12:00:00 7.3 14 Sudoeste 21 Sudoeste 0 -- -- 100
2019-12-08 11:00:00 6.7 15 Sudoeste 20 Sudoeste 0 -- -- 100
2019-12-08 10:00:00 6 10 Sudoeste 17 Sur 0 -- -- 100
2019-12-08 09:00:00 5.7 11 Sur 17 Sudoeste 0 -- -- 100
2019-12-08 08:00:00 4.7 10 Sudoeste 19 Sudoeste 0 -- -- 100
2019-12-08 07:00:00 4 6 Sudoeste 12 Sudoeste 0 -- -- 100
2019-12-08 06:00:00 3.2 8 Sudoeste 11 Sudoeste 0 -- -- 100
2019-12-08 05:00:00 1.9 7 Sudoeste 10 Sudoeste 0 -- -- 100
2019-12-08 04:00:00 1.1 7 Sudoeste 11 Sur 0 -- -- 100
2019-12-08 03:00:00 2.1 6 Sudoeste 10 Sudoeste 0 -- -- 100
2019-12-08 02:00:00 1.8 5 Sur 9 Sudoeste 0 -- -- 100
2019-12-08 01:00:00 1.8 7 Sudoeste 8 Sudoeste 0 -- -- 100
2019-12-08 00:00:00 1.7 4 Sur 6 Sur 0 -- -- 100
2019-12-07 23:00:00 2.3 4 Sur 6 Sudoeste 0 -- -- 100
2019-12-07 22:00:00 2.9 3 Sudoeste 5 Sudoeste 0 -- -- 100
2019-12-07 21:00:00 3.9 4 Sur 8 Oeste 0 -- -- 99
2019-12-07 20:00:00 4.8 4 Sudoeste 5 Sudoeste 0 -- -- 98
2019-12-07 19:00:00 5.5 0 Calma 8 Sudoeste 0 -- -- 92
2019-12-07 18:00:00 8.3 6 Sudoeste 12 Sudoeste 0 -- -- 81
2019-12-07 17:00:00 11.7 11 Sudoeste 15 Sudoeste 0 -- -- 70
2019-12-07 16:00:00 12.9 8 Oeste 14 Oeste 0 -- -- 64
2019-12-07 15:00:00 12.8 9 Oeste 13 Oeste 0 -- -- 62
2019-12-07 14:00:00 12.7 5 Sudoeste 12 Oeste 0 -- -- 67
2019-12-07 13:00:00 12 6 Oeste 12 Sur 0 -- -- 72
2019-12-07 12:00:00 10.5 5 Oeste 9 Oeste 0 -- -- 81
2019-12-07 11:00:00 7.7 2 Sur 4 Sudoeste 0 -- -- 96
2019-12-07 10:00:00 3.5 0 Calma 8 Nordeste 0 -- -- 99
2019-12-07 09:00:00 -1.3 4 Nordeste 5 Nordeste 0 -- -- 100
2019-12-07 08:00:00 -0.5 0 Calma 5 Sur 0 -- -- 100
2019-12-07 07:00:00 -0.4 3 Sudeste 5 Noroeste 0 -- -- 100
2019-12-07 06:00:00 2.5 0 Calma 8 Sur 0 -- -- 100
2019-12-07 05:00:00 2.7 3 Sudoeste 5 Sur 0 -- -- 100
2019-12-07 04:00:00 2.3 2 Sudeste 6 Sudeste 0 -- -- 100
2019-12-07 03:00:00 1.8 3 Noroeste 5 Sudeste 0 -- -- 100
2019-12-07 02:00:00 1.6 0 Calma 4 Sudoeste 0 -- -- 100
2019-12-07 01:00:00 1.9 3 Sur 7 Sur 0 -- -- 99
2019-12-07 00:00:00 2.8 3 Sur 8 Noroeste 0 -- -- 98
2019-12-06 23:00:00 3.9 0 Calma 6 Sur 0 -- -- 99
2019-12-06 22:00:00 3 4 Sur 6 Sudeste 0 -- -- 99
2019-12-06 21:00:00 1.9 7 Sudeste 9 Sudeste 0 -- -- 100
2019-12-06 20:00:00 2.3 5 Este 6 Este 0 -- -- 97
2019-12-06 19:00:00 4.8 5 Norte 6 Norte 0 -- -- 87
2019-12-06 18:00:00 7.3 3 Este 5 Este 0 -- -- 83
2019-12-06 17:00:00 12.3 4 Este 9 Este 0 -- -- 65
2019-12-06 16:00:00 10 5 Nordeste 10 Nordeste 0 -- -- 76
2019-12-06 15:00:00 9.1 7 Nordeste 11 Este 0 -- -- 80
2019-12-06 14:00:00 8.8 7 Nordeste 15 Norte 0 -- -- 79
2019-12-06 13:00:00 8.6 8 Nordeste 12 Nordeste 0 -- -- 87
2019-12-06 12:00:00 5.8 6 Norte 12 Nordeste 0 -- -- 96
2019-12-06 11:00:00 4.3 9 Nordeste 14 Nordeste 0 -- -- 100
2019-12-06 10:00:00 1.7 6 Este 12 Nordeste 0 -- -- 100
2019-12-06 09:00:00 -0.2 10 Nordeste 19 Este 0 -- -- 100
2019-12-06 08:00:00 -0.6 14 Este 18 Nordeste 0 -- -- 100
2019-12-06 07:00:00 0.4 15 Nordeste 25 Este 0 -- -- 100
2019-12-06 06:00:00 -0.5 15 Nordeste 18 Nordeste 0 -- -- 100
2019-12-06 05:00:00 -0.4 14 Nordeste 17 Nordeste 0 -- -- 100
2019-12-06 04:00:00 0.1 10 Nordeste 20 Nordeste 0 -- -- 100
2019-12-06 03:00:00 0.4 15 Nordeste 21 Nordeste 0 -- -- 100
2019-12-06 02:00:00 1.8 13 Nordeste 25 Nordeste 0 -- -- 100
2019-12-06 01:00:00 2.4 18 Nordeste 23 Nordeste 0 -- -- 100
2019-12-06 00:00:00 2.8 16 Nordeste 26 Nordeste 0 -- -- 99
2019-12-05 23:00:00 3.3 16 Nordeste 20 Norte 0 -- -- 99
2019-12-05 22:00:00 3.9 16 Nordeste 21 Nordeste 0 -- -- 94
2019-12-05 21:00:00 4.1 12 Este 22 Nordeste 0 -- -- 94
2019-12-05 20:00:00 5.3 20 Nordeste 26 Nordeste 0 -- -- 91
2019-12-05 19:00:00 6.4 18 Nordeste 24 Nordeste 0 -- -- 88
2019-12-05 18:00:00 7.2 17 Nordeste 24 Nordeste 0 -- -- 83
2019-12-05 17:00:00 9.1 21 Nordeste 35 Nordeste 0 -- -- 77
2019-12-05 16:00:00 9.6 24 Nordeste 36 Este 0 -- -- 77
2019-12-05 15:00:00 8.1 23 Nordeste 37 Nordeste 0 -- -- 83
2019-12-05 14:00:00 7.9 24 Nordeste 39 Nordeste 0 -- -- 84
2019-12-05 13:00:00 7.7 25 Nordeste 44 Nordeste 0 -- -- 88
2019-12-05 12:00:00 6.1 24 Nordeste 41 Nordeste 0 -- -- 92
2019-12-05 11:00:00 3.8 21 Nordeste 28 Nordeste 0 -- -- 91
2019-12-05 10:00:00 2.1 14 Nordeste 30 Nordeste 0 -- -- 98
2019-12-05 09:00:00 1.1 22 Nordeste 27 Nordeste 0 -- -- 99
2019-12-05 08:00:00 0.2 22 Nordeste 30 Nordeste 0 -- -- 99
2019-12-05 07:00:00 0.6 19 Nordeste 23 Nordeste 0 -- -- 100
2019-12-05 06:00:00 0.3 14 Nordeste 32 Nordeste 0 -- -- 96
2019-12-05 05:00:00 0.6 17 Nordeste 23 Nordeste 0 -- -- 99
2019-12-05 04:00:00 -0.4 7 Nordeste 9 Nordeste 0 -- -- 99
2019-12-05 03:00:00 -1.2 3 Sudeste 11 Este 0 -- -- 98
2019-12-05 02:00:00 -0.2 10 Nordeste 17 Nordeste 0 -- -- 94
2019-12-05 01:00:00 0.7 11 Nordeste 19 Nordeste 0 -- -- 93
2019-12-05 00:00:00 2.5 16 Nordeste 31 Nordeste 0 -- -- 89
2019-12-04 23:00:00 3.6 20 Nordeste 26 Nordeste 0 -- -- 93
2019-12-04 22:00:00 4.1 19 Nordeste 25 Nordeste 0 -- -- 100
2019-12-04 21:00:00 1.2 10 Nordeste 15 Nordeste 0 -- -- 100
2019-12-04 20:00:00 1.2 10 Nordeste 14 Nordeste 0 -- -- 99
2019-12-04 19:00:00 1.3 12 Nordeste 14 Nordeste 0 -- -- 97
2019-12-04 18:00:00 3.8 10 Este 23 Nordeste 0 -- -- 93
2019-12-04 17:00:00 6.4 16 Nordeste 36 Nordeste 0 -- -- 87
2019-12-04 16:00:00 6.4 27 Nordeste 42 Nordeste 0 -- -- 86
2019-12-04 15:00:00 6.5 20 Nordeste 35 Nordeste 0 -- -- 85
2019-12-04 14:00:00 6.6 28 Nordeste 38 Nordeste 0 -- -- 82
2019-12-04 13:00:00 4.9 29 Nordeste 37 Nordeste 0 -- -- 88
2019-12-04 12:00:00 3 25 Nordeste 38 Nordeste 0 -- -- 92
2019-12-04 11:00:00 1.7 28 Nordeste 38 Nordeste 0 -- -- 97
2019-12-04 10:00:00 -0.6 26 Nordeste 41 Nordeste 0 -- -- 100
2019-12-04 09:00:00 -2.1 17 Nordeste 31 Nordeste 0 -- -- 100
2019-12-04 08:00:00 -2.2 21 Nordeste 26 Nordeste 0 -- -- 100
2019-12-04 07:00:00 -2.2 21 Nordeste 24 Nordeste 0 -- -- 100
2019-12-04 06:00:00 -1.7 18 Nordeste 22 Nordeste 0 -- -- 100
2019-12-04 05:00:00 -2 13 Nordeste 23 Nordeste 0 -- -- 100
2019-12-04 04:00:00 -2.4 18 Nordeste 24 Nordeste 0 -- -- 100
2019-12-04 03:00:00 -2.8 8 Nordeste 15 Nordeste 0 -- -- 100
2019-12-04 02:00:00 -2.2 13 Nordeste 31 Nordeste 0 -- -- 100
2019-12-04 01:00:00 -1.8 13 Nordeste 21 Nordeste 0 -- -- 100
2019-12-04 00:00:00 -1.9 14 Nordeste 22 Nordeste 0 -- -- 100
2019-12-03 23:00:00 -1.7 11 Nordeste 17 Nordeste 0 -- -- 99
2019-12-03 22:00:00 -1.1 14 Nordeste 18 Nordeste 0 -- -- 98
2019-12-03 21:00:00 -1.4 11 Nordeste 13 Nordeste 0 -- -- 96
2019-12-03 20:00:00 0.1 13 Nordeste 16 Nordeste 0 -- -- 96
2019-12-03 19:00:00 0.6 6 Nordeste 12 Nordeste 0 -- -- 94
2019-12-03 18:00:00 2.6 8 Nordeste 27 Nordeste 0 -- -- 85
2019-12-03 17:00:00 5 20 Nordeste 39 Nordeste 0 -- -- 75
2019-12-03 16:00:00 5.3 21 Nordeste 32 Nordeste 0 -- -- 74
2019-12-03 15:00:00 4.8 19 Nordeste 33 Nordeste 0 -- -- 76
2019-12-03 14:00:00 5 23 Este 41 Este 0 -- -- 76
2019-12-03 13:00:00 3.8 24 Este 40 Nordeste 0 -- -- 79
2019-12-03 12:00:00 2.7 26 Este 41 Nordeste 0 -- -- 87
2019-12-03 11:00:00 3.1 24 Nordeste 34 Nordeste 0 -- -- 88
2019-12-03 10:00:00 1.2 18 Nordeste 26 Nordeste 0 -- -- 92
2019-12-03 09:00:00 -1.1 14 Nordeste 21 Este 0 -- -- 96
2019-12-03 08:00:00 -1.3 14 Este 23 Este 0 -- -- 96
2019-12-03 07:00:00 -0.7 20 Este 28 Este 0 -- -- 94
2019-12-03 06:00:00 -1 17 Nordeste 24 Nordeste 0 -- -- 96
2019-12-03 05:00:00 -0.5 20 Nordeste 26 Nordeste 0 -- -- 96
2019-12-03 04:00:00 -0.5 17 Nordeste 23 Nordeste 0 -- -- 96
2019-12-03 03:00:00 -0.4 16 Nordeste 24 Nordeste 0 -- -- 95
2019-12-03 02:00:00 0.1 18 Nordeste 26 Nordeste 0 -- -- 92
2019-12-03 01:00:00 0.1 22 Nordeste 36 Este 0 -- -- 92
2019-12-03 00:00:00 0.9 23 Nordeste 41 Nordeste 0 -- -- 87
2019-12-02 23:00:00 1.4 33 Nordeste 48 Nordeste 0 -- -- 85
2019-12-02 22:00:00 2.2 36 Nordeste 55 Este 0 -- -- 85
2019-12-02 21:00:00 3 32 Este 54 Este 0 -- -- 85
2019-12-02 20:00:00 3.7 37 Nordeste 58 Nordeste 0 -- -- 84
2019-12-02 19:00:00 4.8 40 Nordeste 54 Nordeste 0 -- -- 83
2019-12-02 18:00:00 5.7 33 Nordeste 53 Nordeste 0 -- -- 81
2019-12-02 17:00:00 7.4 36 Nordeste 54 Nordeste 0 -- -- 73
2019-12-02 16:00:00 7.4 43 Nordeste 63 Este 0 -- -- 74
2019-12-02 15:00:00 8.3 51 Nordeste 68 Nordeste 0 -- -- 72
2019-12-02 14:00:00 7.8 48 Nordeste 63 Nordeste 0 -- -- 77
2019-12-02 13:00:00 8 35 Nordeste 57 Nordeste 0 -- -- 82
2019-12-02 12:00:00 6.3 38 Nordeste 55 Nordeste 0 -- -- 88
2019-12-02 11:00:00 6 36 Nordeste 53 Nordeste 0 -- -- 91
2019-12-02 10:00:00 4.2 29 Nordeste 41 Nordeste 0 -- -- 95
2019-12-02 09:00:00 2.1 23 Nordeste 36 Nordeste 0 -- -- 99
2019-12-02 08:00:00 1.8 23 Nordeste 36 Nordeste 0 -- -- 99
2019-12-02 07:00:00 2.3 27 Nordeste 37 Nordeste 0 -- -- 98
2019-12-02 06:00:00 2.7 28 Nordeste 43 Nordeste 0 -- -- 97
2019-12-02 05:00:00 3 30 Nordeste 45 Nordeste 0 -- -- 96
2019-12-02 04:00:00 3.5 30 Nordeste 46 Nordeste 0 -- -- 94
2019-12-02 03:00:00 4.1 28 Nordeste 40 Nordeste 0 -- -- 93
2019-12-02 02:00:00 4.4 26 Nordeste 38 Nordeste 0 -- -- 94
2019-12-02 01:00:00 4.9 29 Nordeste 41 Norte 0 -- -- 94
2019-12-02 00:00:00 5.5 27 Nordeste 40 Nordeste 0 -- -- 95
2019-12-01 23:00:00 5.8 29 Nordeste 37 Nordeste 0 -- -- 93
2019-12-01 22:00:00 5.2 16 Nordeste 24 Nordeste 0 -- -- 98
2019-12-01 21:00:00 5.3 18 Nordeste 27 Nordeste 0 -- -- 98
2019-12-01 20:00:00 5.3 22 Nordeste 30 Nordeste 0 -- -- 98
2019-12-01 19:00:00 5.4 18 Nordeste 32 Nordeste 0 -- -- 98
2019-12-01 18:00:00 6 27 Nordeste 38 Nordeste 0.2 -- -- 95
2019-12-01 17:00:00 6.4 26 Nordeste 40 Nordeste 0.4 -- -- 98
2019-12-01 16:00:00 7.8 22 Nordeste 32 Nordeste 0 -- -- 89
2019-12-01 15:00:00 8.7 18 Nordeste 27 Nordeste 0.2 -- -- 92
2019-12-01 14:00:00 6.4 17 Nordeste 24 Nordeste 3.4 -- -- 98
2019-12-01 13:00:00 7.1 16 Norte 26 Norte 0.4 -- -- 88
2019-12-01 12:00:00 9 4 Oeste 15 Sudoeste 0 -- -- 86
2019-12-01 11:00:00 8.2 12 Sudoeste 23 Sur 0 -- -- 90
2019-12-01 10:00:00 6.1 13 Sur 23 Sur 0 -- -- 97
2019-12-01 09:00:00 5.8 15 Sudoeste 24 Sur 0 -- -- 96
2019-12-01 08:00:00 5.8 18 Sur 35 Sudoeste 0 -- -- 95
2019-12-01 07:00:00 5.9 22 Sudoeste 32 Sudoeste 0.2 -- -- 98
2019-12-01 06:00:00 5.8 22 Sudoeste 36 Sudoeste 0.2 -- -- 99
2019-12-01 05:00:00 5.5 22 Sudoeste 31 Sudoeste 0.4 -- -- 98
2019-12-01 04:00:00 5.2 22 Sudoeste 36 Sudoeste 0 -- -- 97
2019-12-01 03:00:00 5 18 Sudoeste 26 Sudoeste 0.4 -- -- 96
2019-12-01 02:00:00 4.7 11 Sur 24 Sudoeste 0 -- -- 98
2019-12-01 01:00:00 5.1 18 Sudoeste 27 Sudoeste 0 -- -- 98
2019-12-01 00:00:00 4.8 19 Sudoeste 26 Sudoeste 0 -- -- 100
2019-11-30 23:00:00 3.5 10 Sudoeste 17 Sur 0 -- -- 98
2019-11-30 22:00:00 3.5 12 Sudoeste 16 Sudoeste 0 -- -- 100
2019-11-30 21:00:00 4.5 13 Sudoeste 19 Sur 0 -- -- 97
2019-11-30 20:00:00 5.7 12 Sudoeste 44 Oeste 0 -- -- 91
2019-11-30 19:00:00 6.9 22 Oeste 35 Oeste 0 -- -- 87
2019-11-30 18:00:00 7.3 20 Oeste 36 Oeste 0 -- -- 87
2019-11-30 17:00:00 8 21 Oeste 51 Oeste 0.2 -- -- 84
2019-11-30 16:00:00 7.8 37 Oeste 62 Noroeste 0.2 -- -- 83
2019-11-30 15:00:00 9.4 28 Oeste 40 Oeste 0.4 -- -- 96
2019-11-30 14:00:00 9.5 23 Oeste 53 Oeste 0.4 -- -- 96
2019-11-30 13:00:00 11.7 36 Oeste 60 Oeste 0 -- -- 86
2019-11-30 12:00:00 11.4 35 Sudoeste 56 Oeste 0.8 -- -- 100
2019-11-30 11:00:00 11.3 38 Sudoeste 51 Sudoeste 0.2 -- -- 100
2019-11-30 10:00:00 10.9 32 Sudoeste 49 Sudoeste 0.6 -- -- 100
2019-11-30 09:00:00 10.8 28 Sudoeste 41 Sudoeste 0.4 -- -- 100
2019-11-30 08:00:00 10.7 29 Sudoeste 42 Sudoeste 0.4 -- -- 100
2019-11-30 07:00:00 10.7 25 Sudoeste 39 Sudoeste 0.2 -- -- 100
2019-11-30 06:00:00 10.8 28 Sur 44 Sudoeste 0 -- -- 99
2019-11-30 05:00:00 10.6 26 Sudoeste 34 Sudoeste 0 -- -- 100
2019-11-30 04:00:00 10.8 22 Sudoeste 38 Sudoeste 0 -- -- 99
2019-11-30 03:00:00 11 24 Sudoeste 40 Sudoeste 0 -- -- 99
2019-11-30 02:00:00 11.3 15 Sudoeste 26 Sudoeste 0 -- -- 99
2019-11-30 01:00:00 11.3 21 Sudoeste 34 Sudoeste 0 -- -- 98
2019-11-30 00:00:00 11.3 23 Sudoeste 36 Sudoeste 0 -- -- 100
2019-11-29 23:00:00 11.4 21 Sudoeste 35 Sudoeste 0 -- -- 100
2019-11-29 22:00:00 11.5 20 Sudoeste 30 Oeste 0.2 -- -- 100
2019-11-29 21:00:00 11.3 9 Oeste 20 Oeste 6.2 -- -- 100
2019-11-29 20:00:00 11.3 18 Oeste 25 Oeste 1 -- -- 99
2019-11-29 19:00:00 11.6 8 Sudoeste 11 Sudoeste 0 -- -- 98
2019-11-29 18:00:00 11.7 10 Sudoeste 20 Sudoeste 0 -- -- 95
2019-11-29 17:00:00 13 14 Sudoeste 21 Oeste 0 -- -- 91
2019-11-29 16:00:00 12.9 17 Sudoeste 30 Oeste 0 -- -- 92
2019-11-29 15:00:00 13 19 Sudoeste 38 Oeste 0 -- -- 92
2019-11-29 14:00:00 13.1 22 Sudoeste 35 Sudoeste 0 -- -- 91
2019-11-29 13:00:00 12.6 18 Sudoeste 24 Oeste 0 -- -- 94
2019-11-29 12:00:00 12.4 13 Sudoeste 21 Sudoeste 0 -- -- 98
2019-11-29 11:00:00 11.4 11 Oeste 23 Oeste 0 -- -- 100
2019-11-29 10:00:00 11.1 10 Oeste 15 Oeste 0.4 -- -- 100
2019-11-29 09:00:00 10.9 10 Oeste 21 Oeste 0 -- -- 100
2019-11-29 08:00:00 11 14 Oeste 22 Oeste 0 -- -- 100
2019-11-29 07:00:00 10.8 17 Sudoeste 26 Sudoeste 0 -- -- 100
2019-11-29 06:00:00 10.8 17 Sudoeste 25 Sudoeste 0 -- -- 100
2019-11-29 05:00:00 10.8 20 Sudoeste 28 Oeste 0 -- -- 100
2019-11-29 04:00:00 10.7 19 Sudoeste 33 Oeste 0 -- -- 100
2019-11-29 03:00:00 10.5 23 Sudoeste 38 Sudoeste 0 -- -- 100
2019-11-29 02:00:00 10.4 28 Sudoeste 38 Sudoeste 0 -- -- 100
2019-11-29 01:00:00 10.4 26 Sudoeste 45 Sudoeste 0 -- -- 100
2019-11-29 00:00:00 10.5 24 Sudoeste 37 Sudoeste 0.8 -- -- 100
2019-11-28 23:00:00 10.2 24 Sudoeste 40 Sudoeste 1 -- -- 100
2019-11-28 22:00:00 10 28 Sudoeste 44 Sudoeste 0.8 -- -- 99
2019-11-28 21:00:00 10 33 Sudoeste 49 Sudoeste 0.4 -- -- 97
2019-11-28 20:00:00 10.1 36 Sudoeste 63 Sudoeste 0.2 -- -- 91
2019-11-28 19:00:00 11.1 36 Sudoeste 57 Sudoeste 0 -- -- 82
2019-11-28 18:00:00 11.2 32 Sudoeste 51 Sudoeste 0 -- -- 81
2019-11-28 17:00:00 11.5 36 Sudoeste 54 Sudoeste 0 -- -- 81
2019-11-28 16:00:00 11.7 36 Sudoeste 60 Sudoeste 0 -- -- 81
2019-11-28 15:00:00 12 30 Sudoeste 53 Sudoeste 0 -- -- 83
2019-11-28 14:00:00 11 32 Sudoeste 46 Sudoeste 0 -- -- 85
2019-11-28 13:00:00 10.7 31 Sudoeste 49 Sudoeste 0 -- -- 87
2019-11-28 12:00:00 10.5 29 Sudoeste 39 Sudoeste 0 -- -- 95
2019-11-28 11:00:00 9.2 21 Sudoeste 35 Sudoeste 0.8 -- -- 100
2019-11-28 10:00:00 9.1 22 Sudoeste 33 Sudoeste 0 -- -- 96
2019-11-28 09:00:00 9.3 22 Sudoeste 45 Sudoeste 0 -- -- 94
2019-11-28 08:00:00 8.9 26 Sudoeste 42 Sudoeste 0 -- -- 98
2019-11-28 07:00:00 8.6 28 Sudoeste 41 Sudoeste 0 -- -- 99
2019-11-28 06:00:00 8.7 27 Sudoeste 41 Sudoeste 0 -- -- 98
2019-11-28 05:00:00 8.2 22 Sudoeste 42 Sudoeste 0.2 -- -- 100
2019-11-28 04:00:00 8.1 27 Sudoeste 37 Sudoeste 0 -- -- 100
2019-11-28 03:00:00 8.1 24 Sudoeste 40 Sudoeste 0 -- -- 99
2019-11-28 02:00:00 8.4 25 Sudoeste 39 Sudoeste 0 -- -- 98
2019-11-28 01:00:00 8.2 27 Sudoeste 37 Sudoeste 0 -- -- 100
2019-11-28 00:00:00 8.4 29 Sudoeste 45 Sudoeste 0 -- -- 99
2019-11-27 23:00:00 8.3 29 Sudoeste 41 Sudoeste 0 -- -- 97
2019-11-27 22:00:00 7.9 26 Sudoeste 41 Oeste 0 -- -- 96
2019-11-27 21:00:00 8.3 33 Sudoeste 46 Sudoeste 0 -- -- 98
2019-11-27 20:00:00 8.2 31 Sudoeste 44 Sudoeste 0 -- -- 97
2019-11-27 19:00:00 8.3 22 Sudoeste 52 Sudoeste 0 -- -- 92
2019-11-27 18:00:00 9.4 29 Sudoeste 46 Sudoeste 0 -- -- 79
2019-11-27 17:00:00 10.2 35 Sudoeste 50 Sudoeste 0 -- -- 76
2019-11-27 16:00:00 10.2 38 Sudoeste 76 Sudoeste 0 -- -- 79
2019-11-27 15:00:00 10.4 37 Sudoeste 55 Oeste 0 -- -- 80
2019-11-27 14:00:00 10.5 36 Sudoeste 51 Sudoeste 0 -- -- 79
2019-11-27 06:00:00 -- -- -- -- -- -- -- -- --
2019-11-27 05:00:00 6.7 24 Sudoeste 33 Sudoeste 0 -- -- 95
2019-11-27 04:00:00 6.6 19 Sudoeste 37 Sudoeste 0 -- -- 93
2019-11-27 03:00:00 6.4 22 Sudoeste 42 Oeste 0 -- -- 90
2019-11-27 02:00:00 7.5 26 Oeste 50 Oeste 0 -- -- 84
2019-11-27 01:00:00 8.3 34 Sudoeste 44 Sudoeste 0 -- -- 87
2019-11-27 00:00:00 8.3 29 Oeste 45 Sudoeste 0 -- -- 91
2019-11-26 23:00:00 9.5 35 Sudoeste 62 Oeste 0.2 -- -- 92
2019-11-26 22:00:00 9.7 26 Oeste 43 Oeste 1.2 -- -- 99
2019-11-26 21:00:00 9.4 25 Oeste 67 Sudoeste 4.6 -- -- 97
2019-11-26 20:00:00 11 43 Sudoeste 63 Sudoeste 0 -- -- 87
2019-11-26 19:00:00 11.2 37 Sudoeste 65 Sudoeste 0 -- -- 85
2019-11-26 18:00:00 11.9 46 Sudoeste 66 Oeste 0 -- -- 83
2019-11-26 17:00:00 12.9 44 Oeste 68 Oeste 0.2 -- -- 80
2019-11-26 16:00:00 12.5 39 Sudoeste 68 Sudoeste 1.8 -- -- 95
2019-11-26 15:00:00 13.7 46 Sudoeste 67 Sudoeste 0.2 -- -- 86
2019-11-26 14:00:00 13.7 39 Sudoeste 73 Sudoeste 0 -- -- 87
2019-11-26 13:00:00 13.2 40 Sudoeste 57 Sudoeste 0 -- -- 90
2019-11-26 12:00:00 12.5 36 Sudoeste 54 Sudoeste 0 -- -- 98
2019-11-26 11:00:00 11.5 33 Sudoeste 47 Sudoeste 0.2 -- -- 99
2019-11-26 10:00:00 11 30 Sudoeste 44 Sudoeste 0 -- -- 99
2019-11-26 09:00:00 11 31 Sudoeste 49 Sudoeste 0 -- -- 98
2019-11-26 08:00:00 11.3 31 Sudoeste 44 Sudoeste 0.2 -- -- 95
2019-11-26 07:00:00 11.2 27 Sudoeste 40 Sudoeste 0 -- -- 96
2019-11-26 06:00:00 10.5 23 Sudoeste 34 Sudoeste 0 -- -- 96
2019-11-26 05:00:00 10.2 25 Sudoeste 33 Sudoeste 0 -- -- 94
2019-11-26 04:00:00 9.8 19 Sudoeste 35 Sudoeste 0 -- -- 92
2019-11-26 03:00:00 9.4 20 Sudoeste 28 Sudoeste 0 -- -- 96
2019-11-26 02:00:00 9.1 15 Sur 26 Sudoeste 0 -- -- 96
2019-11-26 01:00:00 8.8 15 Sudoeste 24 Sudoeste 0 -- -- 98
2019-11-26 00:00:00 8.9 19 Sudoeste 38 Sudoeste 0 -- -- 98
2019-11-25 23:00:00 9.2 16 Sudoeste 31 Sudoeste 0 -- -- 99
2019-11-25 22:00:00 9.1 17 Sudoeste 24 Sudoeste 0 -- -- 99
2019-11-25 21:00:00 10 16 Sudoeste 21 Sudoeste 0 -- -- 95
2019-11-25 20:00:00 9.8 13 Sudoeste 28 Sudoeste 0 -- -- 89
2019-11-25 19:00:00 10 11 Sudoeste 16 Sudoeste 0 -- -- 86
2019-11-25 18:00:00 10.1 14 Sudoeste 30 Oeste 0 -- -- 85
2019-11-25 17:00:00 11.4 15 Oeste 34 Oeste 0 -- -- 78
2019-11-25 16:00:00 12 22 Oeste 36 Oeste 0 -- -- 74
2019-11-25 15:00:00 11.8 18 Oeste 45 Oeste 0 -- -- 77
2019-11-25 14:00:00 12.6 26 Oeste 49 Oeste 0 -- -- 77
2019-11-25 13:00:00 12.6 30 Oeste 50 Oeste 0 -- -- 76
2019-11-25 12:00:00 11.8 30 Oeste 46 Oeste 0 -- -- 82
2019-11-25 11:00:00 11.3 30 Oeste 51 Oeste 0 -- -- 87
2019-11-25 10:00:00 10.8 29 Sudoeste 45 Sudoeste 0 -- -- 96
2019-11-25 09:00:00 9.7 22 Sudoeste 35 Sudoeste 0 -- -- 99
2019-11-25 08:00:00 9.9 24 Sudoeste 42 Sudoeste 0 -- -- 99
2019-11-25 07:00:00 9.8 25 Sudoeste 34 Sudoeste 0 -- -- 99
2019-11-25 06:00:00 9.6 19 Sudoeste 32 Sudoeste 0 -- -- 99
2019-11-25 05:00:00 9.8 19 Sudoeste 38 Sudoeste 0 -- -- 99
2019-11-25 04:00:00 9.9 22 Sudoeste 36 Sudoeste 0 -- -- 99
2019-11-25 03:00:00 9.4 22 Sudoeste 39 Sudoeste 0 -- -- 100
2019-11-25 02:00:00 9.7 24 Sudoeste 59 Oeste 0.2 -- -- 99
2019-11-25 01:00:00 9.6 37 Sudoeste 51 Sudoeste 0.6 -- -- 100
2019-11-25 00:00:00 9.1 30 Sudoeste 55 Sudoeste 1.4 -- -- 99
2019-11-24 23:00:00 9.2 33 Sudoeste 53 Sudoeste 0 -- -- 97
2019-11-24 22:00:00 8.7 39 Sudoeste 63 Sudoeste 0 -- -- 98
2019-11-24 21:00:00 8.4 30 Sudoeste 48 Sur 0 -- -- 95
2019-11-24 20:00:00 8.2 29 Sudoeste 40 Sur 0 -- -- 91
2019-11-24 19:00:00 8.3 26 Sudoeste 35 Sudoeste 0 -- -- 90
2019-11-24 18:00:00 8.5 19 Sudoeste 42 Sudoeste 0 -- -- 88
2019-11-24 17:00:00 8.3 30 Sudoeste 41 Sudoeste 0 -- -- 90
2019-11-24 16:00:00 8.6 28 Sudoeste 39 Sudoeste 0 -- -- 84
2019-11-24 15:00:00 8.7 26 Sudoeste 39 Oeste 0 -- -- 80
2019-11-24 14:00:00 8.1 26 Sudoeste 35 Sudoeste 0 -- -- 83
2019-11-24 13:00:00 6.9 15 Sudoeste 28 Sudoeste 0 -- -- 91
2019-11-24 12:00:00 6.5 21 Sudoeste 28 Sudoeste 0 -- -- 90
2019-11-24 11:00:00 5.6 16 Sudoeste 31 Sudoeste 0 -- -- 98
2019-11-24 10:00:00 4.2 21 Sudoeste 27 Sudoeste 0 -- -- 100
2019-11-24 09:00:00 3.6 17 Sudoeste 23 Sudoeste 0 -- -- 100
2019-11-24 08:00:00 3.1 13 Sudoeste 21 Sudoeste 0 -- -- 100
2019-11-24 07:00:00 3.4 14 Sudoeste 22 Sudoeste 0 -- -- 100
2019-11-24 06:00:00 3.2 10 Oeste 20 Sudoeste 0 -- -- 100
2019-11-24 05:00:00 2.7 11 Sudoeste 21 Sudoeste 0 -- -- 100
2019-11-24 04:00:00 1.9 9 Sur 22 Oeste 0 -- -- 100
2019-11-24 03:00:00 3 17 Oeste 24 Sudoeste 0 -- -- 100
2019-11-24 02:00:00 2.2 13 Sudoeste 15 Sudoeste 0 -- -- 100
2019-11-24 01:00:00 3.5 12 Sudoeste 17 Oeste 0 -- -- 80
2019-11-24 00:00:00 4.9 14 Oeste 34 Oeste 0 -- -- 76
2019-11-23 23:00:00 5.9 23 Oeste 32 Oeste 0 -- -- 74
2019-11-23 22:00:00 5.1 12 Oeste 26 Oeste 0 -- -- 79
2019-11-23 21:00:00 5.8 21 Oeste 36 Oeste 0 -- -- 69
2019-11-23 20:00:00 5.8 16 Oeste 33 Oeste 0 -- -- 66
2019-11-23 19:00:00 6.6 15 Oeste 28 Oeste 0 -- -- 61
2019-11-23 18:00:00 6.7 13 Oeste 43 Oeste 0 -- -- 58
2019-11-23 17:00:00 9.1 29 Oeste 49 Oeste 0 -- -- 49
2019-11-23 16:00:00 8.6 34 Oeste 59 Noroeste 0 -- -- 52
2019-11-23 15:00:00 9 31 Oeste 46 Oeste 0 -- -- 53
2019-11-23 14:00:00 8.2 33 Oeste 50 Oeste 0 -- -- 55
2019-11-23 13:00:00 8.3 39 Oeste 78 Oeste 0 -- -- 56
2019-11-23 12:00:00 7.6 26 Oeste 65 Noroeste 0 -- -- 60
2019-11-23 11:00:00 7.2 42 Oeste 53 Oeste 0 -- -- 60
2019-11-23 10:00:00 6.2 27 Oeste 41 Oeste 0 -- -- 66
2019-11-23 09:00:00 4.5 29 Oeste 47 Oeste 0 -- -- 74
2019-11-23 08:00:00 3.9 28 Oeste 37 Oeste 0 -- -- 73
2019-11-23 07:00:00 3.9 29 Oeste 59 Oeste 0 -- -- 73
2019-11-23 06:00:00 4.7 36 Oeste 57 Oeste 0 -- -- 67
2019-11-23 05:00:00 4.9 34 Oeste 61 Oeste 0 -- -- 68
2019-11-23 04:00:00 5.1 40 Oeste 58 Oeste 0 -- -- 71
2019-11-23 03:00:00 5.4 36 Oeste 65 Oeste 0 -- -- 71
2019-11-23 02:00:00 5.3 37 Oeste 70 Oeste 0 -- -- 73
2019-11-23 01:00:00 5.3 38 Oeste 60 Oeste 0 -- -- 72
2019-11-23 00:00:00 5.5 33 Oeste 59 Oeste 0.4 -- -- 78
2019-11-22 23:00:00 5.6 36 Oeste 70 Oeste 1.4 -- -- 77
2019-11-22 22:00:00 7.1 37 Oeste 53 Oeste 0.2 -- -- 77
2019-11-22 21:00:00 7.4 34 Sudoeste 67 Oeste 1.4 -- -- 82
2019-11-22 20:00:00 7.9 33 Sudoeste 56 Sudoeste 0 -- -- 74
2019-11-22 19:00:00 8.3 34 Sudoeste 53 Sudoeste 0 -- -- 70
2019-11-22 18:00:00 8.2 23 Sudoeste 57 Oeste 0 -- -- 74
2019-11-22 17:00:00 9 31 Oeste 58 Oeste 0.2 -- -- 71
2019-11-22 16:00:00 9.9 38 Oeste 63 Sudoeste 0.2 -- -- 65
2019-11-22 15:00:00 10.9 34 Sudoeste 84 Oeste 0 -- -- 73
2019-11-22 14:00:00 10.9 41 Sudoeste 60 Sudoeste 0 -- -- 84
2019-11-22 13:00:00 10.4 40 Sudoeste 69 Sudoeste 1.2 -- -- 90
2019-11-22 12:00:00 10.3 48 Sudoeste 68 Sudoeste 1.6 -- -- 80
2019-11-22 11:00:00 11.4 51 Sudoeste 66 Sudoeste 0 -- -- 65
2019-11-22 10:00:00 9.2 39 Sudoeste 57 Sudoeste 0 -- -- 79
2019-11-22 09:00:00 7.5 29 Sudoeste 44 Sur 0 -- -- 91
2019-11-22 08:00:00 6.9 30 Sur 44 Sur 0.2 -- -- 93
2019-11-22 07:00:00 6.7 28 Sur 41 Sur 1 -- -- 93
2019-11-22 06:00:00 6.7 30 Sur 47 Sudoeste 0.8 -- -- 93
2019-11-22 05:00:00 7 29 Sudoeste 41 Sudoeste 0.6 -- -- 94
2019-11-22 04:00:00 6.9 24 Sudoeste 37 Sudoeste 0 -- -- 92
2019-11-22 03:00:00 6.6 21 Sudoeste 29 Sudoeste 0 -- -- 96
2019-11-22 02:00:00 6.3 15 Sudoeste 27 Sudoeste 0 -- -- 97
2019-11-22 01:00:00 6.5 16 Sudoeste 22 Sudoeste 0 -- -- 97
2019-11-22 00:00:00 6.5 15 Sudoeste 22 Sudoeste 0 -- -- 94
2019-11-21 23:00:00 6.5 14 Sudoeste 22 Sur 0 -- -- 92
2019-11-21 22:00:00 6.3 14 Sur 21 Sur 0 -- -- 84
2019-11-21 21:00:00 6 8 Sudoeste 14 Sudoeste 0 -- -- 80
2019-11-21 20:00:00 6.3 8 Sudoeste 11 Sudoeste 0 -- -- 77
2019-11-21 19:00:00 6.2 8 Sudoeste 14 Sudoeste 0 -- -- 78
2019-11-21 18:00:00 6.1 6 Sudoeste 15 Oeste 0 -- -- 73
2019-11-21 17:00:00 9.8 12 Oeste 22 Oeste 0 -- -- 56
2019-11-21 16:00:00 9.1 17 Oeste 27 Oeste 0 -- -- 58
2019-11-21 15:00:00 8.2 21 Oeste 33 Oeste 0 -- -- 62
2019-11-21 14:00:00 8.7 22 Oeste 33 Oeste 0 -- -- 60
2019-11-21 13:00:00 8.8 18 Oeste 32 Sudoeste 0 -- -- 59
2019-11-21 12:00:00 8.8 17 Oeste 27 Oeste 0 -- -- 65
2019-11-21 11:00:00 6.9 17 Oeste 31 Sudoeste 0 -- -- 83
2019-11-21 10:00:00 5.2 7 Sudoeste 22 Oeste 1.8 -- -- 99
2019-11-21 09:00:00 4.4 16 Oeste 32 Noroeste 1.4 -- -- 99
2019-11-21 08:00:00 -- -- -- -- -- -- -- -- --
2019-11-21 07:00:00 -- -- -- -- -- -- -- -- --
2019-11-21 06:00:00 -- -- -- -- -- -- -- -- --
2019-11-21 05:00:00 -- -- -- -- -- -- -- -- --
2019-11-21 04:00:00 -- -- -- -- -- -- -- -- --
2019-11-21 03:00:00 -- -- -- -- -- -- -- -- --
2019-11-21 02:00:00 -- -- -- -- -- -- -- -- --
2019-11-21 01:00:00 -- -- -- -- -- -- -- -- --
2019-11-21 00:00:00 -- -- -- -- -- -- -- -- --
2019-11-20 23:00:00 -- -- -- -- -- -- -- -- --
2019-11-20 22:00:00 -- -- -- -- -- -- -- -- --
2019-11-20 21:00:00 -- -- -- -- -- -- -- -- --
2019-11-20 20:00:00 -- -- -- -- -- -- -- -- --
2019-11-20 19:00:00 5.2 19 Sudoeste 31 Sudoeste 0 -- -- 81
2019-11-20 18:00:00 5.8 22 Sudoeste 32 Sudoeste 0 -- -- 79
2019-11-20 17:00:00 6.5 18 Sudoeste 35 Sudoeste 0 -- -- 76
2019-11-20 16:00:00 7.2 21 Sudoeste 33 Sudoeste 0 -- -- 79
2019-11-20 15:00:00 6.6 23 Sudoeste 30 Sudoeste 0 -- -- 82
2019-11-20 14:00:00 5.8 18 Sur 27 Sudoeste 0.4 -- -- 97
2019-11-20 13:00:00 5.5 15 Sudoeste 28 Sur 0.6 -- -- 98
2019-11-20 12:00:00 5.1 16 Sur 31 Sur 0 -- -- 98
2019-11-20 11:00:00 4.4 16 Sudoeste 22 Sur 1 -- -- 99
2019-11-20 10:00:00 4.2 18 Sudoeste 35 Sudoeste 1.8 -- -- 98
2019-11-20 09:00:00 4.6 21 Sudoeste 31 Sudoeste 0 -- -- 98
2019-11-20 08:00:00 4.8 16 Sur 22 Sur 0.4 -- -- 100
2019-11-20 07:00:00 4.7 13 Sur 18 Sur 0.4 -- -- 100
2019-11-20 06:00:00 4.5 9 Sur 14 Sur 0.2 -- -- 100
2019-11-20 05:00:00 4.3 9 Sur 15 Sur 1 -- -- 100
2019-11-20 04:00:00 4.3 10 Sur 14 Sur 1 -- -- 100
2019-11-20 03:00:00 4.1 8 Sur 13 Sur 0.6 -- -- 99
2019-11-20 02:00:00 4.3 8 Sur 23 Sudoeste 0.2 -- -- 98
2019-11-20 01:00:00 4.9 11 Sudoeste 18 Sudoeste 0 -- -- 72
2019-11-20 00:00:00 5.8 11 Sudoeste 18 Sudoeste 0 -- -- 62
2019-11-19 23:00:00 5.7 10 Sudoeste 13 Sur 0 -- -- 63
2019-11-19 22:00:00 5.9 9 Sudoeste 12 Sudoeste 0 -- -- 64
2019-11-19 21:00:00 5.7 6 Sudoeste 13 Sudoeste 0 -- -- 65
2019-11-19 20:00:00 6.2 8 Sudoeste 11 Sudoeste 0 -- -- 65
2019-11-19 19:00:00 6.6 4 Sudoeste 9 Sudoeste 0 -- -- 61
2019-11-19 18:00:00 7.2 8 Sudoeste 17 Sudoeste 0 -- -- 55
2019-11-19 17:00:00 8 13 Sudoeste 20 Sudoeste 0 -- -- 47
2019-11-19 16:00:00 8.4 14 Sudoeste 26 Sudoeste 0 -- -- 44
2019-11-19 15:00:00 8.7 14 Sudoeste 23 Sudoeste 0 -- -- 41
2019-11-19 14:00:00 8.7 12 Sudoeste 18 Sudoeste 0 -- -- 49
2019-11-19 13:00:00 7.9 10 Sudoeste 15 Sudoeste 0 -- -- 52
2019-11-19 12:00:00 6.6 6 Sudoeste 9 Sur 0 -- -- 65
2019-11-19 11:00:00 4.9 3 Sur 5 Sur 0 -- -- 79
2019-11-19 10:00:00 0.5 3 Este 5 Nordeste 0 -- -- 99
2019-11-19 09:00:00 -1.3 3 Este 5 Sur 0 -- -- 100
2019-11-19 08:00:00 -0.5 3 Sur 8 Sudeste 0 -- -- 100
2019-11-19 07:00:00 -2.6 4 Este 6 Sudeste 0 -- -- 98
2019-11-19 06:00:00 -2.4 3 Sur 6 Sudeste 0 -- -- 99
2019-11-19 05:00:00 -2.2 0 Calma 6 Sudeste 0 -- -- 98
2019-11-19 04:00:00 -1.6 4 Sudeste 6 Sudeste 0 -- -- 100
2019-11-19 03:00:00 -1.1 2 Sudoeste 13 Sudoeste -- -- -- 100
2019-11-19 02:00:00 -0.8 5 Sudeste 10 Nordeste 0 -- -- 99
2019-11-19 01:00:00 -0.6 0 Calma 6 Sudoeste 0 -- -- 95
2019-11-19 00:00:00 0.4 3 Sur 9 Nordeste 0 -- -- 94
2019-11-18 23:00:00 0.3 3 Este 9 Nordeste 0 -- -- 80
2019-11-18 22:00:00 3 0 Calma 5 Norte 0 -- -- 69
2019-11-18 21:00:00 5.5 5 Oeste 7 Sudoeste 0 -- -- 62
2019-11-18 20:00:00 4.1 0 Calma 7 Oeste 0 -- -- 63
2019-11-18 19:00:00 6.1 2 Sudoeste 5 Sudoeste 0 -- -- 55
2019-11-18 18:00:00 8.4 4 Sudoeste 9 Oeste 0 -- -- 47
2019-11-18 17:00:00 9.7 5 Sudoeste 8 Oeste 0 -- -- 40
2019-11-18 16:00:00 8.9 6 Este 19 Nordeste 0 -- -- 39
2019-11-18 15:00:00 11.2 7 Norte 21 Norte 0 -- -- 29
2019-11-18 14:00:00 12.7 3 Sudeste 19 Nordeste 0 -- -- 25
2019-11-18 13:00:00 9.5 11 Este 20 Nordeste 0 -- -- 56
2019-11-18 12:00:00 8.3 12 Nordeste 16 Nordeste 0 -- -- 67
2019-11-18 11:00:00 8.1 3 Sur 6 Norte 0 -- -- 82
2019-11-18 10:00:00 3.8 3 Sur 7 Sudeste 0 -- -- 98
2019-11-18 09:00:00 -0.3 5 Sudeste 7 Sudeste 0 -- -- 100
2019-11-18 08:00:00 -0.3 4 Oeste 8 Sudeste 0 -- -- 100
2019-11-18 07:00:00 -0.4 4 Sudoeste 14 Noroeste 0 -- -- 100
2019-11-18 06:00:00 1 10 Noroeste 16 Noroeste 0 -- -- 100
2019-11-18 05:00:00 0.1 9 Noroeste 13 Noroeste 0 -- -- 100
2019-11-18 04:00:00 0.2 2 Oeste 8 Norte 0 -- -- 100
2019-11-18 03:00:00 1.1 2 Noroeste 13 Noroeste 0 -- -- 100
2019-11-18 02:00:00 2.1 9 Noroeste 22 Noroeste 0 -- -- 99
2019-11-18 01:00:00 2.8 16 Noroeste 27 Noroeste 0 -- -- 97
2019-11-18 00:00:00 2.6 19 Noroeste 32 Oeste 0 -- -- 97
2019-11-17 23:00:00 2.2 10 Oeste 23 Oeste 0 -- -- 96
2019-11-17 22:00:00 3.3 19 Oeste 27 Oeste 0 -- -- 92
2019-11-17 21:00:00 3.1 9 Noroeste 17 Oeste 0 -- -- 93
2019-11-17 20:00:00 3.5 5 Sur 26 Noroeste 0 -- -- 90
2019-11-17 19:00:00 5.2 20 Oeste 32 Oeste 0 -- -- 89
2019-11-17 18:00:00 6.7 25 Oeste 39 Oeste 0 -- -- 88
2019-11-17 17:00:00 7.8 24 Oeste 34 Noroeste 0 -- -- 91
2019-11-17 16:00:00 8.2 18 Oeste 33 Oeste 0.4 -- -- 95
2019-11-17 15:00:00 8.9 15 Oeste 47 Oeste 0 -- -- 95
2019-11-17 14:00:00 8.6 25 Oeste 46 Oeste 0 -- -- 100
2019-11-17 13:00:00 7.8 23 Oeste 49 Sudoeste 0 -- -- 100
2019-11-17 12:00:00 6.8 23 Sudoeste 38 Sudoeste 0 -- -- 100
2019-11-17 11:00:00 6 23 Sudoeste 34 Sudoeste 0.2 -- -- 100
2019-11-17 10:00:00 4.9 21 Sudoeste 30 Sudoeste 0.2 -- -- 100
2019-11-17 09:00:00 4.4 18 Sudoeste 29 Sudoeste 0 -- -- 100
2019-11-17 08:00:00 3.7 19 Sudoeste 29 Sudoeste 0 -- -- 100
2019-11-17 07:00:00 3.6 15 Sudoeste 26 Sudoeste 0 -- -- 100
2019-11-17 06:00:00 3.5 17 Sudoeste 31 Sudoeste 0 -- -- 99
2019-11-17 05:00:00 3.7 19 Sudoeste 29 Sudoeste 0 -- -- 88
2019-11-17 04:00:00 3.9 18 Sudoeste 26 Sudoeste 0 -- -- 82
2019-11-17 03:00:00 4 19 Sudoeste 28 Sudoeste 0 -- -- 79
2019-11-17 02:00:00 3.7 15 Sudoeste 22 Sudoeste 0 -- -- 79
2019-11-17 01:00:00 3.8 13 Sudoeste 19 Sudoeste 0 -- -- 77
2019-11-17 00:00:00 3.9 14 Sudoeste 23 Oeste 0 -- -- 76
2019-11-16 23:00:00 3.5 12 Sudoeste 21 Oeste 0 -- -- 76
2019-11-16 22:00:00 3.6 10 Oeste 17 Sudoeste 0 -- -- 78
2019-11-16 21:00:00 3.3 12 Oeste 22 Oeste 0 -- -- 76
2019-11-16 20:00:00 4.4 14 Oeste 21 Oeste 0 -- -- 71
2019-11-16 19:00:00 4.3 13 Oeste 23 Oeste 0 -- -- 69
2019-11-16 18:00:00 3.8 18 Oeste 28 Oeste 0 -- -- 65
2019-11-16 17:00:00 5.3 27 Oeste 45 Oeste 0 -- -- 59
2019-11-16 16:00:00 6.8 24 Oeste 46 Oeste 0 -- -- 56
2019-11-16 15:00:00 7.7 25 Oeste 37 Oeste 0 -- -- 54
2019-11-16 14:00:00 7.2 18 Oeste 34 Oeste 0 -- -- 60
2019-11-16 13:00:00 6.2 21 Oeste 32 Oeste 0 -- -- 63
2019-11-16 12:00:00 5.5 15 Oeste 26 Oeste 0 -- -- 69
2019-11-16 11:00:00 2.7 11 Sudoeste 15 Sur 0 -- -- 97
2019-11-16 10:00:00 0.5 11 Sudoeste 14 Sudoeste 0 -- -- 96
2019-11-16 09:00:00 -1.8 6 Oeste 12 Sudoeste 0 -- -- 99
2019-11-16 08:00:00 -2.3 6 Sudoeste 11 Noroeste 0 -- -- 100
2019-11-16 07:00:00 -2.7 3 Sudoeste 9 Oeste 0 -- -- 100
2019-11-16 06:00:00 -1.9 4 Oeste 9 Oeste 0 -- -- 100
2019-11-16 05:00:00 -2.3 3 Noroeste 11 Oeste 0 -- -- 98
2019-11-16 04:00:00 -2.2 8 Sudoeste 15 Oeste 0 -- -- 93
2019-11-16 03:00:00 -1.3 11 Oeste 14 Noroeste 0 -- -- 94
2019-11-16 02:00:00 -0.8 14 Oeste 15 Oeste 0 -- -- 94
2019-11-16 01:00:00 -0.3 12 Oeste 17 Oeste 0 -- -- 90
2019-11-16 00:00:00 0.3 11 Oeste 14 Oeste 0 -- -- 86
2019-11-15 23:00:00 1.1 10 Oeste 18 Noroeste 0 -- -- 82
2019-11-15 22:00:00 2.1 13 Oeste 27 Oeste 0 -- -- 80
2019-11-15 21:00:00 2.8 19 Oeste 35 Oeste 0 -- -- 77
2019-11-15 20:00:00 3.1 21 Oeste 30 Oeste 0 -- -- 73
2019-11-15 19:00:00 2.8 16 Oeste 32 Oeste 0 -- -- 73
2019-11-15 18:00:00 4.1 26 Noroeste 41 Oeste 0 -- -- 61
2019-11-15 17:00:00 5.8 30 Oeste 40 Oeste 0 -- -- 54
2019-11-15 16:00:00 7 27 Noroeste 44 Noroeste 0 -- -- 50
2019-11-15 15:00:00 6.7 28 Oeste 41 Oeste 0 -- -- 51
2019-11-15 14:00:00 6.6 22 Noroeste 41 Oeste 0 -- -- 53
2019-11-15 13:00:00 6 27 Noroeste 40 Oeste 0 -- -- 59
2019-11-15 12:00:00 5.3 28 Noroeste 39 Oeste 0 -- -- 62
2019-11-15 11:00:00 4.3 28 Noroeste 38 Noroeste 0 -- -- 67
2019-11-15 10:00:00 2.5 23 Oeste 32 Oeste 0 -- -- 79
2019-11-15 09:00:00 1.3 18 Oeste 31 Oeste 0 -- -- 82
2019-11-15 08:00:00 1.2 20 Oeste 35 Oeste 0 -- -- 84
2019-11-15 07:00:00 1 21 Oeste 28 Oeste 0 -- -- 84
2019-11-15 06:00:00 1.1 19 Oeste 33 Oeste 0 -- -- 83
2019-11-15 05:00:00 1.3 23 Oeste 37 Oeste 0 -- -- 81
2019-11-15 04:00:00 1.6 26 Oeste 41 Oeste 0 -- -- 81
2019-11-15 03:00:00 2 29 Oeste 44 Oeste 0 -- -- 79
2019-11-15 02:00:00 2.3 31 Oeste 49 Oeste 0 -- -- 78
2019-11-15 01:00:00 2.4 28 Oeste 42 Oeste 0 -- -- 78
2019-11-15 00:00:00 2.4 29 Oeste 40 Noroeste 0 -- -- 78